sensor_id;sensor_type;location;lat;lon;timestamp;temperature;humidity
31597;DHT22;18201;50.978;7.034;2023-03-11T00:00:00;1.70;99.90
31597;DHT22;18201;50.978;7.034;2023-03-11T00:00:33;1.70;99.90
31597;DHT22;18201;50.978;7.034;2023-03-11T00:01:05;1.70;99.90
31597;DHT22;18201;50.978;7.034;2023-03-11T00:01:37;1.70;99.90
31597;DHT22;18201;50.978;7.034;2023-03-11T00:02:10;1.70;99.90
31597;DHT22;18201;50.978;7.034;2023-03-11T00:02:41;1.70;99.90
31597;DHT22;18201;50.978;7.034;2023-03-11T00:03:15;1.70;99.90
31597;DHT22;18201;50.978;7.034;2023-03-11T00:03:45;1.70;99.90
31597;DHT22;18201;50.978;7.034;2023-03-11T00:04:18;1.70;99.90
31597;DHT22;18201;50.978;7.034;2023-03-11T00:04:49;1.70;99.90
31597;DHT22;18201;50.978;7.034;2023-03-11T00:05:22;1.60;99.90
31597;DHT22;18201;50.978;7.034;2023-03-11T00:05:55;1.70;99.90
31597;DHT22;18201;50.978;7.034;2023-03-11T00:06:28;1.70;99.90
31597;DHT22;18201;50.978;7.034;2023-03-11T00:06:59;1.70;99.90
31597;DHT22;18201;50.978;7.034;2023-03-11T00:07:30;1.70;99.90
31597;DHT22;18201;50.978;7.034;2023-03-11T00:08:02;1.70;99.90
31597;DHT22;18201;50.978;7.034;2023-03-11T00:08:33;1.70;99.90
31597;DHT22;18201;50.978;7.034;2023-03-11T00:09:05;1.70;99.90
31597;DHT22;18201;50.978;7.034;2023-03-11T00:09:36;1.70;99.90
31597;DHT22;18201;50.978;7.034;2023-03-11T00:10:10;1.70;99.90
31597;DHT22;18201;50.978;7.034;2023-03-11T00:10:45;1.70;99.90
31597;DHT22;18201;50.978;7.034;2023-03-11T00:11:17;1.70;99.90
31597;DHT22;18201;50.978;7.034;2023-03-11T00:11:49;1.70;99.90
31597;DHT22;18201;50.978;7.034;2023-03-11T00:12:21;1.70;99.90
31597;DHT22;18201;50.978;7.034;2023-03-11T00:12:52;1.70;99.90
31597;DHT22;18201;50.978;7.034;2023-03-11T00:13:25;1.70;99.90
31597;DHT22;18201;50.978;7.034;2023-03-11T00:13:57;1.70;99.90
31597;DHT22;18201;50.978;7.034;2023-03-11T00:14:28;1.70;99.90
31597;DHT22;18201;50.978;7.034;2023-03-11T00:14:59;1.70;99.90
31597;DHT22;18201;50.978;7.034;2023-03-11T00:15:31;1.80;99.90
31597;DHT22;18201;50.978;7.034;2023-03-11T00:16:03;1.80;99.90
31597;DHT22;18201;50.978;7.034;2023-03-11T00:16:34;1.80;99.90
31597;DHT22;18201;50.978;7.034;2023-03-11T00:17:06;1.70;99.90
31597;DHT22;18201;50.978;7.034;2023-03-11T00:17:37;1.70;99.90
31597;DHT22;18201;50.978;7.034;2023-03-11T00:18:08;1.70;99.90
31597;DHT22;18201;50.978;7.034;2023-03-11T00:18:40;1.70;99.90
31597;DHT22;18201;50.978;7.034;2023-03-11T00:19:11;1.70;99.90
31597;DHT22;18201;50.978;7.034;2023-03-11T00:19:42;1.70;99.90
31597;DHT22;18201;50.978;7.034;2023-03-11T00:20:17;1.70;99.90
31597;DHT22;18201;50.978;7.034;2023-03-11T00:20:48;1.70;99.90
31597;DHT22;18201;50.978;7.034;2023-03-11T00:21:19;1.70;99.90
31597;DHT22;18201;50.978;7.034;2023-03-11T00:21:51;1.70;99.90
31597;DHT22;18201;50.978;7.034;2023-03-11T00:22:22;1.70;99.90
31597;DHT22;18201;50.978;7.034;2023-03-11T00:22:53;1.70;99.90
31597;DHT22;18201;50.978;7.034;2023-03-11T00:23:26;1.70;99.90
31597;DHT22;18201;50.978;7.034;2023-03-11T00:23:57;1.70;99.90
31597;DHT22;18201;50.978;7.034;2023-03-11T00:24:30;1.70;99.90
31597;DHT22;18201;50.978;7.034;2023-03-11T00:25:03;1.70;99.90
31597;DHT22;18201;50.978;7.034;2023-03-11T00:25:35;1.70;99.90
31597;DHT22;18201;50.978;7.034;2023-03-11T00:26:06;1.70;99.90
31597;DHT22;18201;50.978;7.034;2023-03-11T00:26:38;1.70;99.90
31597;DHT22;18201;50.978;7.034;2023-03-11T00:27:09;1.70;99.90
31597;DHT22;18201;50.978;7.034;2023-03-11T00:27:40;1.70;99.90
31597;DHT22;18201;50.978;7.034;2023-03-11T00:28:11;1.70;99.90
31597;DHT22;18201;50.978;7.034;2023-03-11T00:28:45;1.70;99.90
31597;DHT22;18201;50.978;7.034;2023-03-11T00:29:18;1.70;99.90
31597;DHT22;18201;50.978;7.034;2023-03-11T00:29:48;1.70;99.90
31597;DHT22;18201;50.978;7.034;2023-03-11T00:30:21;1.70;99.90
31597;DHT22;18201;50.978;7.034;2023-03-11T00:30:52;1.70;99.90
31597;DHT22;18201;50.978;7.034;2023-03-11T00:31:23;1.70;99.90
31597;DHT22;18201;50.978;7.034;2023-03-11T00:31:56;1.70;99.90
31597;DHT22;18201;50.978;7.034;2023-03-11T00:32:27;1.70;99.90
31597;DHT22;18201;50.978;7.034;2023-03-11T00:32:58;1.70;99.90
31597;DHT22;18201;50.978;7.034;2023-03-11T00:33:29;1.70;99.90
31597;DHT22;18201;50.978;7.034;2023-03-11T00:34:01;1.70;99.90
31597;DHT22;18201;50.978;7.034;2023-03-11T00:34:32;1.70;99.90
31597;DHT22;18201;50.978;7.034;2023-03-11T00:35:04;1.70;99.90
31597;DHT22;18201;50.978;7.034;2023-03-11T00:35:35;1.70;99.90
31597;DHT22;18201;50.978;7.034;2023-03-11T00:36:12;1.70;99.90
31597;DHT22;18201;50.978;7.034;2023-03-11T00:36:50;1.70;99.90
31597;DHT22;18201;50.978;7.034;2023-03-11T00:37:21;1.70;99.90
31597;DHT22;18201;50.978;7.034;2023-03-11T00:37:54;1.70;99.90
31597;DHT22;18201;50.978;7.034;2023-03-11T00:38:25;1.70;99.90
31597;DHT22;18201;50.978;7.034;2023-03-11T00:38:56;1.70;99.90
31597;DHT22;18201;50.978;7.034;2023-03-11T00:39:59;1.70;99.90
31597;DHT22;18201;50.978;7.034;2023-03-11T00:40:32;1.70;99.90
31597;DHT22;18201;50.978;7.034;2023-03-11T00:41:04;1.70;99.90
31597;DHT22;18201;50.978;7.034;2023-03-11T00:41:35;1.70;99.90
31597;DHT22;18201;50.978;7.034;2023-03-11T00:42:06;1.70;99.90
31597;DHT22;18201;50.978;7.034;2023-03-11T00:42:37;1.70;99.90
31597;DHT22;18201;50.978;7.034;2023-03-11T00:43:08;1.70;99.90
31597;DHT22;18201;50.978;7.034;2023-03-11T00:43:39;1.70;99.90
31597;DHT22;18201;50.978;7.034;2023-03-11T00:44:12;1.70;99.90
31597;DHT22;18201;50.978;7.034;2023-03-11T00:44:43;1.70;99.90
31597;DHT22;18201;50.978;7.034;2023-03-11T00:45:14;1.70;99.90
31597;DHT22;18201;50.978;7.034;2023-03-11T00:45:45;1.70;99.90
31597;DHT22;18201;50.978;7.034;2023-03-11T00:46:17;1.70;99.90
31597;DHT22;18201;50.978;7.034;2023-03-11T00:46:48;1.70;99.90
31597;DHT22;18201;50.978;7.034;2023-03-11T00:47:19;1.70;99.90
31597;DHT22;18201;50.978;7.034;2023-03-11T00:47:50;1.70;99.90
31597;DHT22;18201;50.978;7.034;2023-03-11T00:48:22;1.70;99.90
31597;DHT22;18201;50.978;7.034;2023-03-11T00:48:53;1.70;99.90
31597;DHT22;18201;50.978;7.034;2023-03-11T00:49:24;1.70;99.90
31597;DHT22;18201;50.978;7.034;2023-03-11T00:49:56;1.70;99.90
31597;DHT22;18201;50.978;7.034;2023-03-11T00:50:29;1.70;99.90
31597;DHT22;18201;50.978;7.034;2023-03-11T00:51:00;1.70;99.90
31597;DHT22;18201;50.978;7.034;2023-03-11T00:51:32;1.70;99.90
31597;DHT22;18201;50.978;7.034;2023-03-11T00:52:03;1.70;99.90
31597;DHT22;18201;50.978;7.034;2023-03-11T00:52:34;1.70;99.90
31597;DHT22;18201;50.978;7.034;2023-03-11T00:53:05;1.70;99.90
31597;DHT22;18201;50.978;7.034;2023-03-11T00:53:37;1.70;99.90
31597;DHT22;18201;50.978;7.034;2023-03-11T00:54:08;1.70;99.90
31597;DHT22;18201;50.978;7.034;2023-03-11T00:54:39;1.70;99.90
31597;DHT22;18201;50.978;7.034;2023-03-11T00:55:12;1.70;99.90
31597;DHT22;18201;50.978;7.034;2023-03-11T00:55:44;1.70;99.90
31597;DHT22;18201;50.978;7.034;2023-03-11T00:56:15;1.70;99.90
31597;DHT22;18201;50.978;7.034;2023-03-11T00:56:47;1.70;99.90
31597;DHT22;18201;50.978;7.034;2023-03-11T00:57:18;1.70;99.90
31597;DHT22;18201;50.978;7.034;2023-03-11T00:57:51;1.70;99.90
31597;DHT22;18201;50.978;7.034;2023-03-11T00:58:23;1.70;99.90
31597;DHT22;18201;50.978;7.034;2023-03-11T00:58:57;1.70;99.90
31597;DHT22;18201;50.978;7.034;2023-03-11T00:59:30;1.70;99.90
31597;DHT22;18201;50.978;7.034;2023-03-11T01:00:04;1.70;99.90
31597;DHT22;18201;50.978;7.034;2023-03-11T01:00:36;1.70;99.90
31597;DHT22;18201;50.978;7.034;2023-03-11T01:01:08;1.70;99.90
31597;DHT22;18201;50.978;7.034;2023-03-11T01:01:39;1.70;99.90
31597;DHT22;18201;50.978;7.034;2023-03-11T01:02:12;1.70;99.90
31597;DHT22;18201;50.978;7.034;2023-03-11T01:02:44;1.70;99.90
31597;DHT22;18201;50.978;7.034;2023-03-11T01:03:15;1.70;99.90
31597;DHT22;18201;50.978;7.034;2023-03-11T01:03:46;1.70;99.90
31597;DHT22;18201;50.978;7.034;2023-03-11T01:04:18;1.70;99.90
31597;DHT22;18201;50.978;7.034;2023-03-11T01:04:52;1.70;99.90
31597;DHT22;18201;50.978;7.034;2023-03-11T01:05:26;1.70;99.90
31597;DHT22;18201;50.978;7.034;2023-03-11T01:05:58;1.70;99.90
31597;DHT22;18201;50.978;7.034;2023-03-11T01:06:29;1.70;99.90
31597;DHT22;18201;50.978;7.034;2023-03-11T01:07:01;1.70;99.90
31597;DHT22;18201;50.978;7.034;2023-03-11T01:07:32;1.70;99.90
31597;DHT22;18201;50.978;7.034;2023-03-11T01:08:03;1.70;99.90
31597;DHT22;18201;50.978;7.034;2023-03-11T01:08:36;1.70;99.90
31597;DHT22;18201;50.978;7.034;2023-03-11T01:09:06;1.70;99.90
31597;DHT22;18201;50.978;7.034;2023-03-11T01:09:37;1.70;99.90
31597;DHT22;18201;50.978;7.034;2023-03-11T01:10:10;1.70;99.90
31597;DHT22;18201;50.978;7.034;2023-03-11T01:10:41;1.70;99.90
31597;DHT22;18201;50.978;7.034;2023-03-11T01:11:13;1.70;99.90
31597;DHT22;18201;50.978;7.034;2023-03-11T01:11:44;1.70;99.90
31597;DHT22;18201;50.978;7.034;2023-03-11T01:12:15;1.70;99.90
31597;DHT22;18201;50.978;7.034;2023-03-11T01:12:46;1.70;99.90
31597;DHT22;18201;50.978;7.034;2023-03-11T01:13:18;1.70;99.90
31597;DHT22;18201;50.978;7.034;2023-03-11T01:13:49;1.70;99.90
31597;DHT22;18201;50.978;7.034;2023-03-11T01:14:20;1.70;99.90
31597;DHT22;18201;50.978;7.034;2023-03-11T01:14:57;1.70;99.90
31597;DHT22;18201;50.978;7.034;2023-03-11T01:15:29;1.70;99.90
31597;DHT22;18201;50.978;7.034;2023-03-11T01:16:02;1.70;99.90
31597;DHT22;18201;50.978;7.034;2023-03-11T01:16:33;1.70;99.90
31597;DHT22;18201;50.978;7.034;2023-03-11T01:17:03;1.70;99.90
31597;DHT22;18201;50.978;7.034;2023-03-11T01:17:37;1.70;99.90
31597;DHT22;18201;50.978;7.034;2023-03-11T01:18:08;1.70;99.90
31597;DHT22;18201;50.978;7.034;2023-03-11T01:18:39;1.70;99.90
31597;DHT22;18201;50.978;7.034;2023-03-11T01:19:10;1.70;99.90
31597;DHT22;18201;50.978;7.034;2023-03-11T01:19:41;1.70;99.90
31597;DHT22;18201;50.978;7.034;2023-03-11T01:20:14;1.70;99.90
31597;DHT22;18201;50.978;7.034;2023-03-11T01:20:46;1.70;99.90
31597;DHT22;18201;50.978;7.034;2023-03-11T01:21:17;1.70;99.90
31597;DHT22;18201;50.978;7.034;2023-03-11T01:21:48;1.70;99.90
31597;DHT22;18201;50.978;7.034;2023-03-11T01:22:20;1.70;99.90
31597;DHT22;18201;50.978;7.034;2023-03-11T01:22:51;1.70;99.90
31597;DHT22;18201;50.978;7.034;2023-03-11T01:23:22;1.70;99.90
31597;DHT22;18201;50.978;7.034;2023-03-11T01:23:54;1.70;99.90
31597;DHT22;18201;50.978;7.034;2023-03-11T01:24:25;1.70;99.90
31597;DHT22;18201;50.978;7.034;2023-03-11T01:24:56;1.70;99.90
31597;DHT22;18201;50.978;7.034;2023-03-11T01:25:28;1.70;99.90
31597;DHT22;18201;50.978;7.034;2023-03-11T01:25:59;1.70;99.90
31597;DHT22;18201;50.978;7.034;2023-03-11T01:26:29;1.70;99.90
31597;DHT22;18201;50.978;7.034;2023-03-11T01:27:01;1.70;99.90
31597;DHT22;18201;50.978;7.034;2023-03-11T01:27:32;1.70;99.90
31597;DHT22;18201;50.978;7.034;2023-03-11T01:28:03;1.70;99.90
31597;DHT22;18201;50.978;7.034;2023-03-11T01:28:36;1.70;99.90
31597;DHT22;18201;50.978;7.034;2023-03-11T01:29:06;1.70;99.90
31597;DHT22;18201;50.978;7.034;2023-03-11T01:29:37;1.70;99.90
31597;DHT22;18201;50.978;7.034;2023-03-11T01:30:13;1.70;99.90
31597;DHT22;18201;50.978;7.034;2023-03-11T01:30:45;1.70;99.90
31597;DHT22;18201;50.978;7.034;2023-03-11T01:31:16;1.60;99.90
31597;DHT22;18201;50.978;7.034;2023-03-11T01:31:49;1.70;99.90
31597;DHT22;18201;50.978;7.034;2023-03-11T01:32:20;1.60;99.90
31597;DHT22;18201;50.978;7.034;2023-03-11T01:32:52;1.70;99.90
31597;DHT22;18201;50.978;7.034;2023-03-11T01:33:24;1.70;99.90
31597;DHT22;18201;50.978;7.034;2023-03-11T01:33:55;1.60;99.90
31597;DHT22;18201;50.978;7.034;2023-03-11T01:34:26;1.70;99.90
31597;DHT22;18201;50.978;7.034;2023-03-11T01:34:58;1.70;99.90
31597;DHT22;18201;50.978;7.034;2023-03-11T01:35:30;1.70;99.90
31597;DHT22;18201;50.978;7.034;2023-03-11T01:36:01;1.70;99.90
31597;DHT22;18201;50.978;7.034;2023-03-11T01:36:33;1.70;99.90
31597;DHT22;18201;50.978;7.034;2023-03-11T01:37:04;1.70;99.90
31597;DHT22;18201;50.978;7.034;2023-03-11T01:37:35;1.70;99.90
31597;DHT22;18201;50.978;7.034;2023-03-11T01:38:07;1.70;99.90
31597;DHT22;18201;50.978;7.034;2023-03-11T01:38:37;1.70;99.90
31597;DHT22;18201;50.978;7.034;2023-03-11T01:39:09;1.70;99.90
31597;DHT22;18201;50.978;7.034;2023-03-11T01:39:40;1.70;99.90
31597;DHT22;18201;50.978;7.034;2023-03-11T01:40:15;1.70;99.90
31597;DHT22;18201;50.978;7.034;2023-03-11T01:40:49;1.70;99.90
31597;DHT22;18201;50.978;7.034;2023-03-11T01:41:21;1.70;99.90
31597;DHT22;18201;50.978;7.034;2023-03-11T01:41:52;1.70;99.90
31597;DHT22;18201;50.978;7.034;2023-03-11T01:42:25;1.70;99.90
31597;DHT22;18201;50.978;7.034;2023-03-11T01:42:57;1.70;99.90
31597;DHT22;18201;50.978;7.034;2023-03-11T01:43:50;1.70;99.90
31597;DHT22;18201;50.978;7.034;2023-03-11T01:44:23;1.70;99.90
31597;DHT22;18201;50.978;7.034;2023-03-11T01:44:55;1.70;99.90
31597;DHT22;18201;50.978;7.034;2023-03-11T01:45:38;1.70;99.90
31597;DHT22;18201;50.978;7.034;2023-03-11T01:46:15;1.70;99.90
31597;DHT22;18201;50.978;7.034;2023-03-11T01:47:31;1.70;99.90
31597;DHT22;18201;50.978;7.034;2023-03-11T01:48:02;1.70;99.90
31597;DHT22;18201;50.978;7.034;2023-03-11T01:48:34;1.70;99.90
31597;DHT22;18201;50.978;7.034;2023-03-11T01:49:10;1.70;99.90
31597;DHT22;18201;50.978;7.034;2023-03-11T01:49:41;1.70;99.90
31597;DHT22;18201;50.978;7.034;2023-03-11T01:50:13;1.70;99.90
31597;DHT22;18201;50.978;7.034;2023-03-11T01:50:48;1.70;99.90
31597;DHT22;18201;50.978;7.034;2023-03-11T01:51:24;1.70;99.90
31597;DHT22;18201;50.978;7.034;2023-03-11T01:52:00;1.70;99.90
31597;DHT22;18201;50.978;7.034;2023-03-11T01:52:33;1.70;99.90
31597;DHT22;18201;50.978;7.034;2023-03-11T01:53:05;1.70;99.90
31597;DHT22;18201;50.978;7.034;2023-03-11T01:53:36;1.70;99.90
31597;DHT22;18201;50.978;7.034;2023-03-11T01:54:11;1.70;99.90
31597;DHT22;18201;50.978;7.034;2023-03-11T01:54:43;1.70;99.90
31597;DHT22;18201;50.978;7.034;2023-03-11T01:55:16;1.70;99.90
31597;DHT22;18201;50.978;7.034;2023-03-11T01:55:49;1.70;99.90
31597;DHT22;18201;50.978;7.034;2023-03-11T01:56:20;1.70;99.90
31597;DHT22;18201;50.978;7.034;2023-03-11T01:56:52;1.70;99.90
31597;DHT22;18201;50.978;7.034;2023-03-11T01:57:25;1.70;99.90
31597;DHT22;18201;50.978;7.034;2023-03-11T01:57:56;1.70;99.90
31597;DHT22;18201;50.978;7.034;2023-03-11T01:58:30;1.70;99.90
31597;DHT22;18201;50.978;7.034;2023-03-11T01:59:03;1.70;99.90
31597;DHT22;18201;50.978;7.034;2023-03-11T01:59:36;1.70;99.90
31597;DHT22;18201;50.978;7.034;2023-03-11T02:00:13;1.70;99.90
31597;DHT22;18201;50.978;7.034;2023-03-11T02:00:47;1.70;99.90
31597;DHT22;18201;50.978;7.034;2023-03-11T02:01:18;1.70;99.90
31597;DHT22;18201;50.978;7.034;2023-03-11T02:01:54;1.70;99.90
31597;DHT22;18201;50.978;7.034;2023-03-11T02:02:30;1.70;99.90
31597;DHT22;18201;50.978;7.034;2023-03-11T02:03:08;1.70;99.90
31597;DHT22;18201;50.978;7.034;2023-03-11T02:03:41;1.70;99.90
31597;DHT22;18201;50.978;7.034;2023-03-11T02:04:13;1.70;99.90
31597;DHT22;18201;50.978;7.034;2023-03-11T02:04:45;1.70;99.90
31597;DHT22;18201;50.978;7.034;2023-03-11T02:05:17;1.70;99.90
31597;DHT22;18201;50.978;7.034;2023-03-11T02:05:51;1.70;99.90
31597;DHT22;18201;50.978;7.034;2023-03-11T02:06:24;1.60;99.90
31597;DHT22;18201;50.978;7.034;2023-03-11T02:06:55;1.70;99.90
31597;DHT22;18201;50.978;7.034;2023-03-11T02:07:27;1.60;99.90
31597;DHT22;18201;50.978;7.034;2023-03-11T02:07:59;1.60;99.90
31597;DHT22;18201;50.978;7.034;2023-03-11T02:08:30;1.70;99.90
31597;DHT22;18201;50.978;7.034;2023-03-11T02:09:03;1.60;99.90
31597;DHT22;18201;50.978;7.034;2023-03-11T02:09:35;1.60;99.90
31597;DHT22;18201;50.978;7.034;2023-03-11T02:10:08;1.60;99.90
31597;DHT22;18201;50.978;7.034;2023-03-11T02:10:41;1.60;99.90
31597;DHT22;18201;50.978;7.034;2023-03-11T02:11:16;1.60;99.90
31597;DHT22;18201;50.978;7.034;2023-03-11T02:11:48;1.60;99.90
31597;DHT22;18201;50.978;7.034;2023-03-11T02:12:19;1.60;99.90
31597;DHT22;18201;50.978;7.034;2023-03-11T02:12:51;1.60;99.90
31597;DHT22;18201;50.978;7.034;2023-03-11T02:13:22;1.60;99.90
31597;DHT22;18201;50.978;7.034;2023-03-11T02:13:55;1.60;99.90
31597;DHT22;18201;50.978;7.034;2023-03-11T02:14:30;1.60;99.90
31597;DHT22;18201;50.978;7.034;2023-03-11T02:15:01;1.60;99.90
31597;DHT22;18201;50.978;7.034;2023-03-11T02:15:33;1.60;99.90
31597;DHT22;18201;50.978;7.034;2023-03-11T02:16:06;1.60;99.90
31597;DHT22;18201;50.978;7.034;2023-03-11T02:16:37;1.60;99.90
31597;DHT22;18201;50.978;7.034;2023-03-11T02:17:08;1.60;99.90
31597;DHT22;18201;50.978;7.034;2023-03-11T02:17:41;1.60;99.90
31597;DHT22;18201;50.978;7.034;2023-03-11T02:18:14;1.60;99.90
31597;DHT22;18201;50.978;7.034;2023-03-11T02:18:45;1.60;99.90
31597;DHT22;18201;50.978;7.034;2023-03-11T02:19:23;1.60;99.90
31597;DHT22;18201;50.978;7.034;2023-03-11T02:20:07;1.60;99.90
31597;DHT22;18201;50.978;7.034;2023-03-11T02:20:46;1.60;99.90
31597;DHT22;18201;50.978;7.034;2023-03-11T02:21:23;1.60;99.90
31597;DHT22;18201;50.978;7.034;2023-03-11T02:21:54;1.60;99.90
31597;DHT22;18201;50.978;7.034;2023-03-11T02:22:26;1.60;99.90
31597;DHT22;18201;50.978;7.034;2023-03-11T02:23:00;1.60;99.90
31597;DHT22;18201;50.978;7.034;2023-03-11T02:23:38;1.60;99.90
31597;DHT22;18201;50.978;7.034;2023-03-11T02:24:16;1.60;99.90
31597;DHT22;18201;50.978;7.034;2023-03-11T02:24:58;1.60;99.90
31597;DHT22;18201;50.978;7.034;2023-03-11T02:25:34;1.60;99.90
31597;DHT22;18201;50.978;7.034;2023-03-11T02:26:13;1.60;99.90
31597;DHT22;18201;50.978;7.034;2023-03-11T02:26:53;1.60;99.90
31597;DHT22;18201;50.978;7.034;2023-03-11T02:27:26;1.60;99.90
31597;DHT22;18201;50.978;7.034;2023-03-11T02:27:59;1.60;99.90
31597;DHT22;18201;50.978;7.034;2023-03-11T02:28:31;1.60;99.90
31597;DHT22;18201;50.978;7.034;2023-03-11T02:29:06;1.60;99.90
31597;DHT22;18201;50.978;7.034;2023-03-11T02:29:38;1.60;99.90
31597;DHT22;18201;50.978;7.034;2023-03-11T02:30:12;1.60;99.90
31597;DHT22;18201;50.978;7.034;2023-03-11T02:30:44;1.60;99.90
31597;DHT22;18201;50.978;7.034;2023-03-11T02:31:16;1.60;99.90
31597;DHT22;18201;50.978;7.034;2023-03-11T02:31:47;1.60;99.90
31597;DHT22;18201;50.978;7.034;2023-03-11T02:32:20;1.60;99.90
31597;DHT22;18201;50.978;7.034;2023-03-11T02:32:51;1.50;99.90
31597;DHT22;18201;50.978;7.034;2023-03-11T02:33:24;1.60;99.90
31597;DHT22;18201;50.978;7.034;2023-03-11T02:34:00;1.60;99.90
31597;DHT22;18201;50.978;7.034;2023-03-11T02:34:34;1.60;99.90
31597;DHT22;18201;50.978;7.034;2023-03-11T02:35:06;1.60;99.90
31597;DHT22;18201;50.978;7.034;2023-03-11T02:35:38;1.60;99.90
31597;DHT22;18201;50.978;7.034;2023-03-11T02:36:30;1.50;99.90
31597;DHT22;18201;50.978;7.034;2023-03-11T02:37:05;1.60;99.90
31597;DHT22;18201;50.978;7.034;2023-03-11T02:37:36;1.50;99.90
31597;DHT22;18201;50.978;7.034;2023-03-11T02:38:12;1.50;99.90
31597;DHT22;18201;50.978;7.034;2023-03-11T02:38:44;1.50;99.90
31597;DHT22;18201;50.978;7.034;2023-03-11T02:39:15;1.60;99.90
31597;DHT22;18201;50.978;7.034;2023-03-11T02:39:48;1.50;99.90
31597;DHT22;18201;50.978;7.034;2023-03-11T02:40:50;1.50;99.90
31597;DHT22;18201;50.978;7.034;2023-03-11T02:41:22;1.60;99.90
31597;DHT22;18201;50.978;7.034;2023-03-11T02:41:55;1.50;99.90
31597;DHT22;18201;50.978;7.034;2023-03-11T02:42:29;1.50;99.90
31597;DHT22;18201;50.978;7.034;2023-03-11T02:43:02;1.60;99.90
31597;DHT22;18201;50.978;7.034;2023-03-11T02:43:39;1.50;99.90
31597;DHT22;18201;50.978;7.034;2023-03-11T02:44:14;1.50;99.90
31597;DHT22;18201;50.978;7.034;2023-03-11T02:44:48;1.50;99.90
31597;DHT22;18201;50.978;7.034;2023-03-11T02:45:23;1.50;99.90
31597;DHT22;18201;50.978;7.034;2023-03-11T02:45:55;1.50;99.90
31597;DHT22;18201;50.978;7.034;2023-03-11T02:46:26;1.50;99.90
31597;DHT22;18201;50.978;7.034;2023-03-11T02:46:59;1.50;99.90
31597;DHT22;18201;50.978;7.034;2023-03-11T02:47:30;1.50;99.90
31597;DHT22;18201;50.978;7.034;2023-03-11T02:48:02;1.50;99.90
31597;DHT22;18201;50.978;7.034;2023-03-11T02:48:33;1.50;99.90
31597;DHT22;18201;50.978;7.034;2023-03-11T02:49:05;1.50;99.90
31597;DHT22;18201;50.978;7.034;2023-03-11T02:49:37;1.50;99.90
31597;DHT22;18201;50.978;7.034;2023-03-11T02:50:12;1.50;99.90
31597;DHT22;18201;50.978;7.034;2023-03-11T02:50:45;1.50;99.90
31597;DHT22;18201;50.978;7.034;2023-03-11T02:51:17;1.50;99.90
31597;DHT22;18201;50.978;7.034;2023-03-11T02:51:48;1.50;99.90
31597;DHT22;18201;50.978;7.034;2023-03-11T02:52:19;1.50;99.90
31597;DHT22;18201;50.978;7.034;2023-03-11T02:52:51;1.50;99.90
31597;DHT22;18201;50.978;7.034;2023-03-11T02:53:23;1.50;99.90
31597;DHT22;18201;50.978;7.034;2023-03-11T02:53:57;1.50;99.90
31597;DHT22;18201;50.978;7.034;2023-03-11T02:54:29;1.50;99.90
31597;DHT22;18201;50.978;7.034;2023-03-11T02:55:01;1.50;99.90
31597;DHT22;18201;50.978;7.034;2023-03-11T02:55:32;1.50;99.90
31597;DHT22;18201;50.978;7.034;2023-03-11T02:56:04;1.50;99.90
31597;DHT22;18201;50.978;7.034;2023-03-11T02:56:36;1.50;99.90
31597;DHT22;18201;50.978;7.034;2023-03-11T02:57:08;1.50;99.90
31597;DHT22;18201;50.978;7.034;2023-03-11T02:57:40;1.50;99.90
31597;DHT22;18201;50.978;7.034;2023-03-11T02:58:10;1.50;99.90
31597;DHT22;18201;50.978;7.034;2023-03-11T02:58:41;1.50;99.90
31597;DHT22;18201;50.978;7.034;2023-03-11T02:59:13;1.50;99.90
31597;DHT22;18201;50.978;7.034;2023-03-11T02:59:44;1.50;99.90
31597;DHT22;18201;50.978;7.034;2023-03-11T03:00:16;1.50;99.90
31597;DHT22;18201;50.978;7.034;2023-03-11T03:00:47;1.50;99.90
31597;DHT22;18201;50.978;7.034;2023-03-11T03:01:19;1.50;99.90
31597;DHT22;18201;50.978;7.034;2023-03-11T03:01:50;1.50;99.90
31597;DHT22;18201;50.978;7.034;2023-03-11T03:02:20;1.50;99.90
31597;DHT22;18201;50.978;7.034;2023-03-11T03:02:52;1.50;99.90
31597;DHT22;18201;50.978;7.034;2023-03-11T03:03:24;1.50;99.90
31597;DHT22;18201;50.978;7.034;2023-03-11T03:03:55;1.50;99.90
31597;DHT22;18201;50.978;7.034;2023-03-11T03:04:27;1.40;99.90
31597;DHT22;18201;50.978;7.034;2023-03-11T03:04:57;1.40;99.90
31597;DHT22;18201;50.978;7.034;2023-03-11T03:05:28;1.40;99.90
31597;DHT22;18201;50.978;7.034;2023-03-11T03:06:00;1.40;99.90
31597;DHT22;18201;50.978;7.034;2023-03-11T03:06:31;1.40;99.90
31597;DHT22;18201;50.978;7.034;2023-03-11T03:07:02;1.40;99.90
31597;DHT22;18201;50.978;7.034;2023-03-11T03:07:34;1.40;99.90
31597;DHT22;18201;50.978;7.034;2023-03-11T03:08:05;1.40;99.90
31597;DHT22;18201;50.978;7.034;2023-03-11T03:08:36;1.40;99.90
31597;DHT22;18201;50.978;7.034;2023-03-11T03:09:08;1.40;99.90
31597;DHT22;18201;50.978;7.034;2023-03-11T03:09:39;1.40;99.90
31597;DHT22;18201;50.978;7.034;2023-03-11T03:10:11;1.40;99.90
31597;DHT22;18201;50.978;7.034;2023-03-11T03:10:42;1.40;99.90
31597;DHT22;18201;50.978;7.034;2023-03-11T03:11:13;1.40;99.90
31597;DHT22;18201;50.978;7.034;2023-03-11T03:11:44;1.40;99.90
31597;DHT22;18201;50.978;7.034;2023-03-11T03:12:17;1.40;99.90
31597;DHT22;18201;50.978;7.034;2023-03-11T03:12:48;1.40;99.90
31597;DHT22;18201;50.978;7.034;2023-03-11T03:13:19;1.40;99.90
31597;DHT22;18201;50.978;7.034;2023-03-11T03:13:50;1.30;99.90
31597;DHT22;18201;50.978;7.034;2023-03-11T03:14:22;1.30;99.90
31597;DHT22;18201;50.978;7.034;2023-03-11T03:14:53;1.30;99.90
31597;DHT22;18201;50.978;7.034;2023-03-11T03:15:23;1.30;99.90
31597;DHT22;18201;50.978;7.034;2023-03-11T03:15:55;1.30;99.90
31597;DHT22;18201;50.978;7.034;2023-03-11T03:16:26;1.30;99.90
31597;DHT22;18201;50.978;7.034;2023-03-11T03:16:57;1.20;99.90
31597;DHT22;18201;50.978;7.034;2023-03-11T03:17:28;1.30;99.90
31597;DHT22;18201;50.978;7.034;2023-03-11T03:18:00;1.30;99.90
31597;DHT22;18201;50.978;7.034;2023-03-11T03:18:31;1.20;99.90
31597;DHT22;18201;50.978;7.034;2023-03-11T03:19:02;1.20;99.90
31597;DHT22;18201;50.978;7.034;2023-03-11T03:19:34;1.20;99.90
31597;DHT22;18201;50.978;7.034;2023-03-11T03:20:06;1.20;99.90
31597;DHT22;18201;50.978;7.034;2023-03-11T03:20:40;1.20;99.90
31597;DHT22;18201;50.978;7.034;2023-03-11T03:21:12;1.20;99.90
31597;DHT22;18201;50.978;7.034;2023-03-11T03:21:43;1.20;99.90
31597;DHT22;18201;50.978;7.034;2023-03-11T03:22:14;1.20;99.90
31597;DHT22;18201;50.978;7.034;2023-03-11T03:22:45;1.20;99.90
31597;DHT22;18201;50.978;7.034;2023-03-11T03:23:17;1.10;99.90
31597;DHT22;18201;50.978;7.034;2023-03-11T03:23:48;1.10;99.90
31597;DHT22;18201;50.978;7.034;2023-03-11T03:24:20;1.10;99.90
31597;DHT22;18201;50.978;7.034;2023-03-11T03:24:51;1.10;99.90
31597;DHT22;18201;50.978;7.034;2023-03-11T03:25:22;1.10;99.90
31597;DHT22;18201;50.978;7.034;2023-03-11T03:25:54;1.10;99.90
31597;DHT22;18201;50.978;7.034;2023-03-11T03:26:25;1.10;99.90
31597;DHT22;18201;50.978;7.034;2023-03-11T03:26:55;1.10;99.90
31597;DHT22;18201;50.978;7.034;2023-03-11T03:27:29;1.10;99.90
31597;DHT22;18201;50.978;7.034;2023-03-11T03:28:00;1.00;99.90
31597;DHT22;18201;50.978;7.034;2023-03-11T03:28:31;1.10;99.90
31597;DHT22;18201;50.978;7.034;2023-03-11T03:29:03;1.10;99.90